← Previous June 18, 2024 9:49 AM Next →

FTUS43 KFSD 161120
TAFHON
TAF
KHON 161120Z 1612/1712 27010KT P6SM FEW250
     FM161400 32012G20KT P6SM SCT200
     FM162000 35012G18KT P6SM BKN200
     FM170500 05008KT P6SM VCTS OVC080CB
     FM170700 03010KT 5SM -TSRA OVC050CB=